sensor_id;sensor_type;location;lat;lon;timestamp;temperature;humidity
10062;DHT22;5070;52.382;5.270;2023-10-31T00:01:15;19.60;92.50
10062;DHT22;5070;52.382;5.270;2023-10-31T00:03:43;19.60;92.60
10062;DHT22;5070;52.382;5.270;2023-10-31T00:06:11;19.60;92.60
10062;DHT22;5070;52.382;5.270;2023-10-31T00:08:39;19.60;92.50
10062;DHT22;5070;52.382;5.270;2023-10-31T00:11:07;19.60;92.50
10062;DHT22;5070;52.382;5.270;2023-10-31T00:13:35;19.60;92.50
10062;DHT22;5070;52.382;5.270;2023-10-31T00:16:05;19.60;92.40
10062;DHT22;5070;52.382;5.270;2023-10-31T00:18:34;19.60;92.40
10062;DHT22;5070;52.382;5.270;2023-10-31T00:21:02;19.60;92.40
10062;DHT22;5070;52.382;5.270;2023-10-31T00:23:30;19.60;92.40
10062;DHT22;5070;52.382;5.270;2023-10-31T00:25:58;19.60;92.40
10062;DHT22;5070;52.382;5.270;2023-10-31T00:28:26;19.50;92.40
10062;DHT22;5070;52.382;5.270;2023-10-31T00:30:54;19.60;92.40
10062;DHT22;5070;52.382;5.270;2023-10-31T00:33:24;19.50;92.30
10062;DHT22;5070;52.382;5.270;2023-10-31T00:35:52;19.50;92.30
10062;DHT22;5070;52.382;5.270;2023-10-31T00:38:20;19.50;92.30
10062;DHT22;5070;52.382;5.270;2023-10-31T00:40:48;19.50;92.30
10062;DHT22;5070;52.382;5.270;2023-10-31T00:43:16;19.50;92.50
10062;DHT22;5070;52.382;5.270;2023-10-31T00:45:44;19.50;92.20
10062;DHT22;5070;52.382;5.270;2023-10-31T00:48:12;19.50;92.10
10062;DHT22;5070;52.382;5.270;2023-10-31T00:50:41;19.50;92.20
10062;DHT22;5070;52.382;5.270;2023-10-31T00:53:10;19.50;92.10
10062;DHT22;5070;52.382;5.270;2023-10-31T00:55:40;19.50;92.10
10062;DHT22;5070;52.382;5.270;2023-10-31T00:58:08;19.50;92.10
10062;DHT22;5070;52.382;5.270;2023-10-31T01:00:36;19.50;92.00
10062;DHT22;5070;52.382;5.270;2023-10-31T01:03:04;19.50;92.00
10062;DHT22;5070;52.382;5.270;2023-10-31T01:05:33;19.50;92.00
10062;DHT22;5070;52.382;5.270;2023-10-31T01:08:02;19.40;91.90
10062;DHT22;5070;52.382;5.270;2023-10-31T01:10:32;19.40;91.90
10062;DHT22;5070;52.382;5.270;2023-10-31T01:13:00;19.40;91.90
10062;DHT22;5070;52.382;5.270;2023-10-31T01:15:28;19.40;91.90
10062;DHT22;5070;52.382;5.270;2023-10-31T01:17:58;19.40;91.90
10062;DHT22;5070;52.382;5.270;2023-10-31T01:20:26;19.40;91.80
10062;DHT22;5070;52.382;5.270;2023-10-31T01:22:54;19.40;91.90
10062;DHT22;5070;52.382;5.270;2023-10-31T01:25:23;19.40;91.80
10062;DHT22;5070;52.382;5.270;2023-10-31T01:27:51;19.40;91.80
10062;DHT22;5070;52.382;5.270;2023-10-31T01:30:19;19.40;91.80
10062;DHT22;5070;52.382;5.270;2023-10-31T01:32:47;19.40;91.80
10062;DHT22;5070;52.382;5.270;2023-10-31T01:35:15;19.40;91.80
10062;DHT22;5070;52.382;5.270;2023-10-31T01:37:43;19.40;91.80
10062;DHT22;5070;52.382;5.270;2023-10-31T01:40:12;19.40;91.80
10062;DHT22;5070;52.382;5.270;2023-10-31T01:42:42;19.30;91.70
10062;DHT22;5070;52.382;5.270;2023-10-31T01:45:11;19.40;91.80
10062;DHT22;5070;52.382;5.270;2023-10-31T01:47:39;19.40;91.70
10062;DHT22;5070;52.382;5.270;2023-10-31T01:50:08;19.30;91.70
10062;DHT22;5070;52.382;5.270;2023-10-31T01:52:37;19.30;91.70
10062;DHT22;5070;52.382;5.270;2023-10-31T01:55:06;19.40;91.70
10062;DHT22;5070;52.382;5.270;2023-10-31T01:57:34;19.30;91.60
10062;DHT22;5070;52.382;5.270;2023-10-31T02:00:05;19.30;91.60
10062;DHT22;5070;52.382;5.270;2023-10-31T02:02:38;19.30;91.60
10062;DHT22;5070;52.382;5.270;2023-10-31T02:05:09;19.30;91.60
10062;DHT22;5070;52.382;5.270;2023-10-31T02:07:37;19.30;91.60
10062;DHT22;5070;52.382;5.270;2023-10-31T02:10:06;19.30;91.60
10062;DHT22;5070;52.382;5.270;2023-10-31T02:12:35;19.30;91.60
10062;DHT22;5070;52.382;5.270;2023-10-31T02:15:06;19.30;91.60
10062;DHT22;5070;52.382;5.270;2023-10-31T02:17:34;19.30;91.60
10062;DHT22;5070;52.382;5.270;2023-10-31T02:20:02;19.20;91.60
10062;DHT22;5070;52.382;5.270;2023-10-31T02:22:32;19.30;91.50
10062;DHT22;5070;52.382;5.270;2023-10-31T02:25:00;19.30;91.50
10062;DHT22;5070;52.382;5.270;2023-10-31T02:27:28;19.20;91.50
10062;DHT22;5070;52.382;5.270;2023-10-31T02:29:56;19.30;91.50
10062;DHT22;5070;52.382;5.270;2023-10-31T02:32:24;19.20;91.50
10062;DHT22;5070;52.382;5.270;2023-10-31T02:34:52;19.20;91.50
10062;DHT22;5070;52.382;5.270;2023-10-31T02:37:20;19.20;91.50
10062;DHT22;5070;52.382;5.270;2023-10-31T02:39:49;19.20;91.40
10062;DHT22;5070;52.382;5.270;2023-10-31T02:42:17;19.20;91.50
10062;DHT22;5070;52.382;5.270;2023-10-31T02:44:46;19.20;91.40
10062;DHT22;5070;52.382;5.270;2023-10-31T02:47:15;19.20;91.40
10062;DHT22;5070;52.382;5.270;2023-10-31T02:49:43;19.20;91.40
10062;DHT22;5070;52.382;5.270;2023-10-31T02:52:11;19.20;91.40
10062;DHT22;5070;52.382;5.270;2023-10-31T02:54:39;19.20;91.30
10062;DHT22;5070;52.382;5.270;2023-10-31T02:57:08;19.20;91.40
10062;DHT22;5070;52.382;5.270;2023-10-31T02:59:36;19.20;91.40
10062;DHT22;5070;52.382;5.270;2023-10-31T03:02:04;19.20;91.40
10062;DHT22;5070;52.382;5.270;2023-10-31T03:04:32;19.20;91.30
10062;DHT22;5070;52.382;5.270;2023-10-31T03:07:00;19.20;91.30
10062;DHT22;5070;52.382;5.270;2023-10-31T03:09:28;19.20;91.40
10062;DHT22;5070;52.382;5.270;2023-10-31T03:11:56;19.20;91.40
10062;DHT22;5070;52.382;5.270;2023-10-31T03:14:25;19.20;91.30
10062;DHT22;5070;52.382;5.270;2023-10-31T03:16:53;19.10;91.30
10062;DHT22;5070;52.382;5.270;2023-10-31T03:19:21;19.20;91.30
10062;DHT22;5070;52.382;5.270;2023-10-31T03:21:49;19.20;91.30
10062;DHT22;5070;52.382;5.270;2023-10-31T03:24:17;19.10;91.30
10062;DHT22;5070;52.382;5.270;2023-10-31T03:26:45;19.20;91.30
10062;DHT22;5070;52.382;5.270;2023-10-31T03:29:13;19.10;91.20
10062;DHT22;5070;52.382;5.270;2023-10-31T03:31:43;19.20;91.30
10062;DHT22;5070;52.382;5.270;2023-10-31T03:34:11;19.10;91.20
10062;DHT22;5070;52.382;5.270;2023-10-31T03:36:39;19.10;91.20
10062;DHT22;5070;52.382;5.270;2023-10-31T03:39:07;19.10;91.20
10062;DHT22;5070;52.382;5.270;2023-10-31T03:41:35;19.10;91.20
10062;DHT22;5070;52.382;5.270;2023-10-31T03:44:04;19.10;91.10
10062;DHT22;5070;52.382;5.270;2023-10-31T03:46:32;19.10;91.10
10062;DHT22;5070;52.382;5.270;2023-10-31T03:49:01;19.10;91.20
10062;DHT22;5070;52.382;5.270;2023-10-31T03:51:29;19.10;91.10
10062;DHT22;5070;52.382;5.270;2023-10-31T03:53:57;19.10;91.10
10062;DHT22;5070;52.382;5.270;2023-10-31T03:56:25;19.10;91.10
10062;DHT22;5070;52.382;5.270;2023-10-31T03:58:53;19.10;91.10
10062;DHT22;5070;52.382;5.270;2023-10-31T04:01:21;19.10;91.40
10062;DHT22;5070;52.382;5.270;2023-10-31T04:03:49;19.10;91.10
10062;DHT22;5070;52.382;5.270;2023-10-31T04:06:19;19.10;91.10
10062;DHT22;5070;52.382;5.270;2023-10-31T04:08:47;19.10;91.10
10062;DHT22;5070;52.382;5.270;2023-10-31T04:11:15;19.10;91.00
10062;DHT22;5070;52.382;5.270;2023-10-31T04:13:42;19.10;91.00
10062;DHT22;5070;52.382;5.270;2023-10-31T04:16:10;19.10;91.10
10062;DHT22;5070;52.382;5.270;2023-10-31T04:18:38;19.10;91.00
10062;DHT22;5070;52.382;5.270;2023-10-31T04:21:06;19.00;91.00
10062;DHT22;5070;52.382;5.270;2023-10-31T04:23:36;19.10;91.00
10062;DHT22;5070;52.382;5.270;2023-10-31T04:26:06;19.00;90.90
10062;DHT22;5070;52.382;5.270;2023-10-31T04:28:33;19.00;91.00
10062;DHT22;5070;52.382;5.270;2023-10-31T04:31:02;19.00;91.00
10062;DHT22;5070;52.382;5.270;2023-10-31T04:33:30;19.00;91.00
10062;DHT22;5070;52.382;5.270;2023-10-31T04:35:58;19.00;91.00
10062;DHT22;5070;52.382;5.270;2023-10-31T04:38:27;19.00;91.00
10062;DHT22;5070;52.382;5.270;2023-10-31T04:40:56;19.00;91.00
10062;DHT22;5070;52.382;5.270;2023-10-31T04:43:24;19.00;91.00
10062;DHT22;5070;52.382;5.270;2023-10-31T04:45:52;19.00;91.00
10062;DHT22;5070;52.382;5.270;2023-10-31T04:48:20;19.00;91.00
10062;DHT22;5070;52.382;5.270;2023-10-31T04:50:48;19.00;91.00
10062;DHT22;5070;52.382;5.270;2023-10-31T04:53:16;19.00;91.00
10062;DHT22;5070;52.382;5.270;2023-10-31T04:55:44;19.00;91.00
10062;DHT22;5070;52.382;5.270;2023-10-31T04:58:14;19.00;91.00
10062;DHT22;5070;52.382;5.270;2023-10-31T05:00:42;18.90;91.00
10062;DHT22;5070;52.382;5.270;2023-10-31T05:03:11;19.00;91.00
10062;DHT22;5070;52.382;5.270;2023-10-31T05:05:41;18.90;91.00
10062;DHT22;5070;52.382;5.270;2023-10-31T05:08:09;18.90;91.00
10062;DHT22;5070;52.382;5.270;2023-10-31T05:10:38;19.00;91.00
10062;DHT22;5070;52.382;5.270;2023-10-31T05:13:05;19.00;91.00
10062;DHT22;5070;52.382;5.270;2023-10-31T05:15:35;18.90;91.00
10062;DHT22;5070;52.382;5.270;2023-10-31T05:18:03;19.00;91.00
10062;DHT22;5070;52.382;5.270;2023-10-31T05:20:31;19.00;91.00
10062;DHT22;5070;52.382;5.270;2023-10-31T05:22:59;18.90;91.00
10062;DHT22;5070;52.382;5.270;2023-10-31T05:25:27;18.90;90.90
10062;DHT22;5070;52.382;5.270;2023-10-31T05:27:55;18.90;90.90
10062;DHT22;5070;52.382;5.270;2023-10-31T05:30:23;18.90;90.90
10062;DHT22;5070;52.382;5.270;2023-10-31T05:32:53;18.90;90.90
10062;DHT22;5070;52.382;5.270;2023-10-31T05:35:21;18.90;90.90
10062;DHT22;5070;52.382;5.270;2023-10-31T05:37:50;18.90;91.00
10062;DHT22;5070;52.382;5.270;2023-10-31T05:40:18;18.90;91.00
10062;DHT22;5070;52.382;5.270;2023-10-31T05:42:49;18.90;90.90
10062;DHT22;5070;52.382;5.270;2023-10-31T05:45:16;18.90;91.00
10062;DHT22;5070;52.382;5.270;2023-10-31T05:47:47;18.90;91.00
10062;DHT22;5070;52.382;5.270;2023-10-31T05:50:16;18.90;91.10
10062;DHT22;5070;52.382;5.270;2023-10-31T05:52:44;18.90;91.20
10062;DHT22;5070;52.382;5.270;2023-10-31T05:55:13;18.90;91.20
10062;DHT22;5070;52.382;5.270;2023-10-31T05:57:41;18.90;91.00
10062;DHT22;5070;52.382;5.270;2023-10-31T06:00:10;18.90;91.00
10062;DHT22;5070;52.382;5.270;2023-10-31T06:02:38;18.90;91.00
10062;DHT22;5070;52.382;5.270;2023-10-31T06:05:08;18.90;91.00
10062;DHT22;5070;52.382;5.270;2023-10-31T06:07:38;18.90;91.00
10062;DHT22;5070;52.382;5.270;2023-10-31T06:10:07;18.90;91.00
10062;DHT22;5070;52.382;5.270;2023-10-31T06:12:36;18.90;91.00
10062;DHT22;5070;52.382;5.270;2023-10-31T06:15:06;18.90;91.00
10062;DHT22;5070;52.382;5.270;2023-10-31T06:17:34;18.90;91.00
10062;DHT22;5070;52.382;5.270;2023-10-31T06:20:03;18.90;91.10
10062;DHT22;5070;52.382;5.270;2023-10-31T06:22:32;18.90;91.10
10062;DHT22;5070;52.382;5.270;2023-10-31T06:25:02;18.90;91.00
10062;DHT22;5070;52.382;5.270;2023-10-31T06:27:30;18.90;91.10
10062;DHT22;5070;52.382;5.270;2023-10-31T06:29:58;18.90;91.00
10062;DHT22;5070;52.382;5.270;2023-10-31T06:32:46;18.90;91.00
10062;DHT22;5070;52.382;5.270;2023-10-31T06:35:14;18.90;91.00
10062;DHT22;5070;52.382;5.270;2023-10-31T06:37:42;18.80;91.00
10062;DHT22;5070;52.382;5.270;2023-10-31T06:40:12;18.90;91.00
10062;DHT22;5070;52.382;5.270;2023-10-31T06:42:40;18.80;91.00
10062;DHT22;5070;52.382;5.270;2023-10-31T06:45:08;18.90;91.00
10062;DHT22;5070;52.382;5.270;2023-10-31T06:47:36;18.80;91.00
10062;DHT22;5070;52.382;5.270;2023-10-31T06:50:06;18.80;91.00
10062;DHT22;5070;52.382;5.270;2023-10-31T06:52:35;18.80;91.00
10062;DHT22;5070;52.382;5.270;2023-10-31T06:55:03;18.80;91.00
10062;DHT22;5070;52.382;5.270;2023-10-31T06:57:33;18.80;90.90
10062;DHT22;5070;52.382;5.270;2023-10-31T07:00:01;18.80;91.30
10062;DHT22;5070;52.382;5.270;2023-10-31T07:02:30;18.80;91.00
10062;DHT22;5070;52.382;5.270;2023-10-31T07:04:58;18.80;91.00
10062;DHT22;5070;52.382;5.270;2023-10-31T07:07:26;18.90;91.00
10062;DHT22;5070;52.382;5.270;2023-10-31T07:09:54;18.80;91.00
10062;DHT22;5070;52.382;5.270;2023-10-31T07:12:22;18.90;91.00
10062;DHT22;5070;52.382;5.270;2023-10-31T07:14:51;18.90;91.00
10062;DHT22;5070;52.382;5.270;2023-10-31T07:17:19;18.90;91.00
10062;DHT22;5070;52.382;5.270;2023-10-31T07:19:47;18.90;91.00
10062;DHT22;5070;52.382;5.270;2023-10-31T07:22:15;19.00;91.10
10062;DHT22;5070;52.382;5.270;2023-10-31T07:24:44;19.00;91.10
10062;DHT22;5070;52.382;5.270;2023-10-31T07:27:12;19.00;91.10
10062;DHT22;5070;52.382;5.270;2023-10-31T07:29:40;19.00;91.20
10062;DHT22;5070;52.382;5.270;2023-10-31T07:32:10;19.00;91.10
10062;DHT22;5070;52.382;5.270;2023-10-31T07:34:40;19.00;91.20
10062;DHT22;5070;52.382;5.270;2023-10-31T07:37:08;19.00;91.10
10062;DHT22;5070;52.382;5.270;2023-10-31T07:39:36;19.10;91.10
10062;DHT22;5070;52.382;5.270;2023-10-31T07:42:05;19.10;91.10
10062;DHT22;5070;52.382;5.270;2023-10-31T07:44:33;19.10;91.10
10062;DHT22;5070;52.382;5.270;2023-10-31T07:47:01;19.10;91.40
10062;DHT22;5070;52.382;5.270;2023-10-31T07:49:30;19.10;91.20
10062;DHT22;5070;52.382;5.270;2023-10-31T07:51:58;19.10;91.20
10062;DHT22;5070;52.382;5.270;2023-10-31T07:54:26;19.10;91.20
10062;DHT22;5070;52.382;5.270;2023-10-31T07:56:54;19.10;91.20
10062;DHT22;5070;52.382;5.270;2023-10-31T07:59:22;19.10;91.10
10062;DHT22;5070;52.382;5.270;2023-10-31T08:01:50;19.20;91.30
10062;DHT22;5070;52.382;5.270;2023-10-31T08:04:19;19.20;91.50
10062;DHT22;5070;52.382;5.270;2023-10-31T08:06:48;19.20;91.60
10062;DHT22;5070;52.382;5.270;2023-10-31T08:09:16;19.20;91.50
10062;DHT22;5070;52.382;5.270;2023-10-31T08:11:44;19.20;91.60
10062;DHT22;5070;52.382;5.270;2023-10-31T08:14:12;19.20;91.60
10062;DHT22;5070;52.382;5.270;2023-10-31T08:16:42;19.20;91.60
10062;DHT22;5070;52.382;5.270;2023-10-31T08:19:10;19.20;91.60
10062;DHT22;5070;52.382;5.270;2023-10-31T08:21:39;19.20;91.70
10062;DHT22;5070;52.382;5.270;2023-10-31T08:24:09;19.20;91.90
10062;DHT22;5070;52.382;5.270;2023-10-31T08:26:37;19.20;92.00
10062;DHT22;5070;52.382;5.270;2023-10-31T08:29:05;19.30;92.00
10062;DHT22;5070;52.382;5.270;2023-10-31T08:31:33;19.30;92.10
10062;DHT22;5070;52.382;5.270;2023-10-31T08:34:02;19.30;92.40
10062;DHT22;5070;52.382;5.270;2023-10-31T08:36:30;19.30;92.30
10062;DHT22;5070;52.382;5.270;2023-10-31T08:38:58;19.30;92.20
10062;DHT22;5070;52.382;5.270;2023-10-31T08:41:27;19.30;92.30
10062;DHT22;5070;52.382;5.270;2023-10-31T08:43:55;19.40;92.70
10062;DHT22;5070;52.382;5.270;2023-10-31T08:46:25;19.40;92.70
10062;DHT22;5070;52.382;5.270;2023-10-31T08:48:53;19.40;92.70
10062;DHT22;5070;52.382;5.270;2023-10-31T08:51:21;19.40;92.80
10062;DHT22;5070;52.382;5.270;2023-10-31T08:53:49;19.40;92.90
10062;DHT22;5070;52.382;5.270;2023-10-31T08:56:17;19.40;92.50
10062;DHT22;5070;52.382;5.270;2023-10-31T08:58:47;19.40;92.40
10062;DHT22;5070;52.382;5.270;2023-10-31T09:01:15;19.40;92.60
10062;DHT22;5070;52.382;5.270;2023-10-31T09:03:43;19.50;92.80
10062;DHT22;5070;52.382;5.270;2023-10-31T09:06:11;19.50;92.80
10062;DHT22;5070;52.382;5.270;2023-10-31T09:08:39;19.50;92.90
10062;DHT22;5070;52.382;5.270;2023-10-31T09:11:07;19.50;93.00
10062;DHT22;5070;52.382;5.270;2023-10-31T09:13:35;19.50;93.00
10062;DHT22;5070;52.382;5.270;2023-10-31T09:16:05;19.50;93.00
10062;DHT22;5070;52.382;5.270;2023-10-31T09:18:34;19.50;93.10
10062;DHT22;5070;52.382;5.270;2023-10-31T09:21:02;19.50;93.20
10062;DHT22;5070;52.382;5.270;2023-10-31T09:23:30;19.50;93.10
10062;DHT22;5070;52.382;5.270;2023-10-31T09:25:59;19.50;93.20
10062;DHT22;5070;52.382;5.270;2023-10-31T09:28:27;19.50;93.20
10062;DHT22;5070;52.382;5.270;2023-10-31T09:30:55;19.60;93.30
10062;DHT22;5070;52.382;5.270;2023-10-31T09:33:24;19.60;93.20
10062;DHT22;5070;52.382;5.270;2023-10-31T09:35:52;19.60;93.30
10062;DHT22;5070;52.382;5.270;2023-10-31T09:38:20;19.60;93.30
10062;DHT22;5070;52.382;5.270;2023-10-31T09:40:48;19.60;93.30
10062;DHT22;5070;52.382;5.270;2023-10-31T09:43:17;19.60;93.40
10062;DHT22;5070;52.382;5.270;2023-10-31T09:45:45;19.60;93.40
10062;DHT22;5070;52.382;5.270;2023-10-31T09:48:14;19.60;93.60
10062;DHT22;5070;52.382;5.270;2023-10-31T09:50:43;19.60;93.00
10062;DHT22;5070;52.382;5.270;2023-10-31T09:53:12;19.60;93.10
10062;DHT22;5070;52.382;5.270;2023-10-31T09:55:42;19.60;93.30
10062;DHT22;5070;52.382;5.270;2023-10-31T09:58:10;19.60;93.40
10062;DHT22;5070;52.382;5.270;2023-10-31T10:00:38;19.60;93.60
10062;DHT22;5070;52.382;5.270;2023-10-31T10:03:07;19.60;93.70
10062;DHT22;5070;52.382;5.270;2023-10-31T10:05:36;19.60;93.70
10062;DHT22;5070;52.382;5.270;2023-10-31T10:08:06;19.60;93.80
10062;DHT22;5070;52.382;5.270;2023-10-31T10:10:34;19.60;93.80
10062;DHT22;5070;52.382;5.270;2023-10-31T10:13:02;19.60;93.90
10062;DHT22;5070;52.382;5.270;2023-10-31T10:15:43;19.60;94.00
10062;DHT22;5070;52.382;5.270;2023-10-31T10:18:24;19.60;94.00
10062;DHT22;5070;52.382;5.270;2023-10-31T10:20:56;19.60;94.10
10062;DHT22;5070;52.382;5.270;2023-10-31T10:23:26;19.60;94.10
10062;DHT22;5070;52.382;5.270;2023-10-31T10:25:56;19.60;94.20
10062;DHT22;5070;52.382;5.270;2023-10-31T10:28:24;19.60;94.20
10062;DHT22;5070;52.382;5.270;2023-10-31T10:30:53;19.60;94.30
10062;DHT22;5070;52.382;5.270;2023-10-31T10:33:22;19.60;94.30
10062;DHT22;5070;52.382;5.270;2023-10-31T10:35:50;19.60;94.30
10062;DHT22;5070;52.382;5.270;2023-10-31T10:38:19;19.70;94.30
10062;DHT22;5070;52.382;5.270;2023-10-31T10:40:48;19.70;94.40
10062;DHT22;5070;52.382;5.270;2023-10-31T10:43:20;19.70;94.30
10062;DHT22;5070;52.382;5.270;2023-10-31T10:45:53;19.70;94.20
10062;DHT22;5070;52.382;5.270;2023-10-31T10:48:24;19.70;94.00
10062;DHT22;5070;52.382;5.270;2023-10-31T10:50:59;19.70;93.80
10062;DHT22;5070;52.382;5.270;2023-10-31T10:53:30;19.70;93.90
10062;DHT22;5070;52.382;5.270;2023-10-31T10:56:09;19.70;93.80
10062;DHT22;5070;52.382;5.270;2023-10-31T10:58:44;19.70;93.60
10062;DHT22;5070;52.382;5.270;2023-10-31T11:01:16;19.70;93.60
10062;DHT22;5070;52.382;5.270;2023-10-31T11:03:45;19.70;93.40
10062;DHT22;5070;52.382;5.270;2023-10-31T11:06:14;19.70;93.40
10062;DHT22;5070;52.382;5.270;2023-10-31T11:08:43;19.70;93.40
10062;DHT22;5070;52.382;5.270;2023-10-31T11:11:13;19.70;93.50
10062;DHT22;5070;52.382;5.270;2023-10-31T11:13:43;19.60;93.50
10062;DHT22;5070;52.382;5.270;2023-10-31T11:16:17;19.70;93.50
10062;DHT22;5070;52.382;5.270;2023-10-31T11:18:48;19.70;93.50
10062;DHT22;5070;52.382;5.270;2023-10-31T11:21:16;19.70;93.70
10062;DHT22;5070;52.382;5.270;2023-10-31T11:23:44;19.70;93.80
10062;DHT22;5070;52.382;5.270;2023-10-31T11:26:13;19.70;94.00
10062;DHT22;5070;52.382;5.270;2023-10-31T11:28:41;19.70;93.90
10062;DHT22;5070;52.382;5.270;2023-10-31T11:31:09;19.70;94.00
10062;DHT22;5070;52.382;5.270;2023-10-31T11:33:39;19.70;93.60
10062;DHT22;5070;52.382;5.270;2023-10-31T11:36:10;19.70;93.50
10062;DHT22;5070;52.382;5.270;2023-10-31T11:38:38;19.80;93.20
10062;DHT22;5070;52.382;5.270;2023-10-31T11:41:06;19.70;93.40
10062;DHT22;5070;52.382;5.270;2023-10-31T11:43:53;19.70;93.50
10062;DHT22;5070;52.382;5.270;2023-10-31T11:46:23;19.70;93.60
10062;DHT22;5070;52.382;5.270;2023-10-31T11:48:53;19.80;93.50
10062;DHT22;5070;52.382;5.270;2023-10-31T11:51:21;19.80;93.90
10062;DHT22;5070;52.382;5.270;2023-10-31T11:53:49;19.80;93.20
10062;DHT22;5070;52.382;5.270;2023-10-31T11:56:21;19.80;93.30
10062;DHT22;5070;52.382;5.270;2023-10-31T11:58:58;19.80;93.40
10062;DHT22;5070;52.382;5.270;2023-10-31T12:01:26;19.90;93.50
10062;DHT22;5070;52.382;5.270;2023-10-31T12:03:55;19.90;93.60
10062;DHT22;5070;52.382;5.270;2023-10-31T12:06:23;19.90;93.40
10062;DHT22;5070;52.382;5.270;2023-10-31T12:08:51;19.90;93.20
10062;DHT22;5070;52.382;5.270;2023-10-31T12:11:22;19.90;93.20
10062;DHT22;5070;52.382;5.270;2023-10-31T12:13:55;19.90;93.60
10062;DHT22;5070;52.382;5.270;2023-10-31T12:16:25;19.90;93.70
10062;DHT22;5070;52.382;5.270;2023-10-31T12:18:55;19.90;93.60
10062;DHT22;5070;52.382;5.270;2023-10-31T12:21:41;19.90;93.40
10062;DHT22;5070;52.382;5.270;2023-10-31T12:24:11;19.90;93.80
10062;DHT22;5070;52.382;5.270;2023-10-31T12:26:39;19.90;94.00
10062;DHT22;5070;52.382;5.270;2023-10-31T12:29:09;19.90;94.00
10062;DHT22;5070;52.382;5.270;2023-10-31T12:31:44;19.90;94.10
10062;DHT22;5070;52.382;5.270;2023-10-31T12:34:13;19.90;94.10
10062;DHT22;5070;52.382;5.270;2023-10-31T12:36:41;19.90;94.10
10062;DHT22;5070;52.382;5.270;2023-10-31T12:39:11;19.90;94.10
10062;DHT22;5070;52.382;5.270;2023-10-31T12:41:40;19.90;94.20
10062;DHT22;5070;52.382;5.270;2023-10-31T12:44:09;19.90;93.90
10062;DHT22;5070;52.382;5.270;2023-10-31T12:46:39;19.90;94.20
10062;DHT22;5070;52.382;5.270;2023-10-31T12:49:12;19.90;94.30
10062;DHT22;5070;52.382;5.270;2023-10-31T12:51:55;19.90;93.90
10062;DHT22;5070;52.382;5.270;2023-10-31T12:54:28;19.90;94.00
10062;DHT22;5070;52.382;5.270;2023-10-31T12:56:59;19.90;94.20
10062;DHT22;5070;52.382;5.270;2023-10-31T12:59:28;19.90;94.20
10062;DHT22;5070;52.382;5.270;2023-10-31T13:01:56;19.90;93.90
10062;DHT22;5070;52.382;5.270;2023-10-31T13:04:26;19.90;94.00
10062;DHT22;5070;52.382;5.270;2023-10-31T13:06:58;19.90;93.60
10062;DHT22;5070;52.382;5.270;2023-10-31T13:09:30;19.90;93.50
10062;DHT22;5070;52.382;5.270;2023-10-31T13:12:00;19.90;93.40
10062;DHT22;5070;52.382;5.270;2023-10-31T13:14:28;19.90;93.20
10062;DHT22;5070;52.382;5.270;2023-10-31T13:16:57;19.90;93.20
10062;DHT22;5070;52.382;5.270;2023-10-31T13:19:27;19.90;93.10
10062;DHT22;5070;52.382;5.270;2023-10-31T13:21:55;19.90;93.00
10062;DHT22;5070;52.382;5.270;2023-10-31T13:24:23;19.80;92.80
10062;DHT22;5070;52.382;5.270;2023-10-31T13:26:51;19.80;92.80
10062;DHT22;5070;52.382;5.270;2023-10-31T13:29:19;19.80;93.10
10062;DHT22;5070;52.382;5.270;2023-10-31T13:31:48;19.80;92.80
10062;DHT22;5070;52.382;5.270;2023-10-31T13:34:16;19.80;92.70
10062;DHT22;5070;52.382;5.270;2023-10-31T13:36:46;19.80;92.60
10062;DHT22;5070;52.382;5.270;2023-10-31T13:39:18;19.80;92.50
10062;DHT22;5070;52.382;5.270;2023-10-31T13:41:48;19.80;92.50
10062;DHT22;5070;52.382;5.270;2023-10-31T13:44:16;19.80;92.40
10062;DHT22;5070;52.382;5.270;2023-10-31T13:46:44;19.80;92.70
10062;DHT22;5070;52.382;5.270;2023-10-31T13:49:12;19.80;92.50
10062;DHT22;5070;52.382;5.270;2023-10-31T13:51:41;19.80;92.40
10062;DHT22;5070;52.382;5.270;2023-10-31T13:54:10;19.80;92.40
10062;DHT22;5070;52.382;5.270;2023-10-31T13:56:38;19.80;92.60
10062;DHT22;5070;52.382;5.270;2023-10-31T13:59:06;19.80;92.70
10062;DHT22;5070;52.382;5.270;2023-10-31T14:01:35;19.80;92.70
10062;DHT22;5070;52.382;5.270;2023-10-31T14:04:03;19.80;93.00
10062;DHT22;5070;52.382;5.270;2023-10-31T14:06:31;19.80;93.10
10062;DHT22;5070;52.382;5.270;2023-10-31T14:09:00;19.80;93.00
10062;DHT22;5070;52.382;5.270;2023-10-31T14:11:33;19.80;93.20
10062;DHT22;5070;52.382;5.270;2023-10-31T14:14:01;19.80;93.50
10062;DHT22;5070;52.382;5.270;2023-10-31T14:16:33;19.80;93.50
10062;DHT22;5070;52.382;5.270;2023-10-31T14:19:01;19.80;93.50
10062;DHT22;5070;52.382;5.270;2023-10-31T14:21:30;19.80;94.00
10062;DHT22;5070;52.382;5.270;2023-10-31T14:23:58;19.80;93.70
10062;DHT22;5070;52.382;5.270;2023-10-31T14:26:38;19.80;93.70
10062;DHT22;5070;52.382;5.270;2023-10-31T14:29:07;19.80;93.70
10062;DHT22;5070;52.382;5.270;2023-10-31T14:31:38;19.80;93.80
10062;DHT22;5070;52.382;5.270;2023-10-31T14:34:08;19.80;93.80
10062;DHT22;5070;52.382;5.270;2023-10-31T14:36:36;19.80;93.70
10062;DHT22;5070;52.382;5.270;2023-10-31T14:39:04;19.90;93.80
10062;DHT22;5070;52.382;5.270;2023-10-31T14:41:32;19.80;93.60
10062;DHT22;5070;52.382;5.270;2023-10-31T14:44:03;19.80;93.60
10062;DHT22;5070;52.382;5.270;2023-10-31T14:46:31;19.80;93.40
10062;DHT22;5070;52.382;5.270;2023-10-31T14:48:59;19.80;93.50
10062;DHT22;5070;52.382;5.270;2023-10-31T14:51:27;19.90;93.60
10062;DHT22;5070;52.382;5.270;2023-10-31T14:53:55;19.80;93.60
10062;DHT22;5070;52.382;5.270;2023-10-31T14:56:25;19.90;93.50
10062;DHT22;5070;52.382;5.270;2023-10-31T14:58:56;19.80;93.50
10062;DHT22;5070;52.382;5.270;2023-10-31T15:01:26;19.80;93.30
10062;DHT22;5070;52.382;5.270;2023-10-31T15:03:54;19.80;93.20
10062;DHT22;5070;52.382;5.270;2023-10-31T15:06:22;19.80;93.10
10062;DHT22;5070;52.382;5.270;2023-10-31T15:08:50;19.80;93.00
10062;DHT22;5070;52.382;5.270;2023-10-31T15:11:18;19.80;93.00
10062;DHT22;5070;52.382;5.270;2023-10-31T15:13:46;19.80;93.20
10062;DHT22;5070;52.382;5.270;2023-10-31T15:16:14;19.80;93.10
10062;DHT22;5070;52.382;5.270;2023-10-31T15:18:43;19.80;92.90
10062;DHT22;5070;52.382;5.270;2023-10-31T15:21:12;19.80;92.90
10062;DHT22;5070;52.382;5.270;2023-10-31T15:23:40;19.80;92.80
10062;DHT22;5070;52.382;5.270;2023-10-31T15:26:08;19.80;93.20
10062;DHT22;5070;52.382;5.270;2023-10-31T15:28:40;19.80;92.40
10062;DHT22;5070;52.382;5.270;2023-10-31T15:31:09;19.80;91.30
10062;DHT22;5070;52.382;5.270;2023-10-31T15:33:37;19.80;92.30
10062;DHT22;5070;52.382;5.270;2023-10-31T15:36:09;19.80;92.60
10062;DHT22;5070;52.382;5.270;2023-10-31T15:38:38;19.80;92.70
10062;DHT22;5070;52.382;5.270;2023-10-31T15:41:06;19.80;92.60
10062;DHT22;5070;52.382;5.270;2023-10-31T15:43:44;19.80;92.70
10062;DHT22;5070;52.382;5.270;2023-10-31T15:46:12;19.80;92.60
10062;DHT22;5070;52.382;5.270;2023-10-31T15:48:40;19.80;92.50
10062;DHT22;5070;52.382;5.270;2023-10-31T15:51:10;19.80;92.50
10062;DHT22;5070;52.382;5.270;2023-10-31T15:53:38;19.80;92.50
10062;DHT22;5070;52.382;5.270;2023-10-31T15:56:07;19.80;92.50